createdAt,value
2023-01-19T05:04:45.725Z,1.29
2023-01-19T05:07:49.074Z,1.27
2023-01-19T05:10:51.838Z,1.31
2023-01-19T05:13:54.673Z,1.38
2023-01-19T05:16:57.308Z,1.45
2023-01-19T05:20:00.195Z,1.49
2023-01-19T05:23:03.178Z,1.57
2023-01-19T05:26:06.421Z,1.69
2023-01-19T05:29:10.247Z,1.63
2023-01-19T05:32:13.753Z,1.62
2023-01-19T05:35:20.120Z,1.65
2023-01-19T05:38:35.387Z,1.62
2023-01-19T05:41:38.436Z,1.64
2023-01-19T05:44:41.276Z,1.61
2023-01-19T05:47:43.843Z,1.59
2023-01-19T05:50:49.627Z,1.62
2023-01-19T05:53:52.240Z,1.62
2023-01-19T05:56:55.073Z,1.67
2023-01-19T05:59:57.581Z,1.61
2023-01-19T06:03:02.529Z,1.66
2023-01-19T06:06:05.911Z,1.66
2023-01-19T06:09:08.982Z,1.79
2023-01-19T06:12:11.890Z,1.83
2023-01-19T06:15:15.493Z,1.79
2023-01-19T06:18:18.697Z,1.75
2023-01-19T06:21:21.521Z,1.71
2023-01-19T06:24:25.320Z,1.74
2023-01-19T06:27:28.002Z,1.66
2023-01-19T06:30:31.008Z,1.59
2023-01-19T06:33:33.527Z,1.62
2023-01-19T06:36:36.781Z,1.68
2023-01-19T06:39:41.083Z,1.67
2023-01-19T06:42:44.080Z,1.71
2023-01-19T06:45:47.340Z,1.72
2023-01-19T06:48:50.258Z,1.73
2023-01-19T06:51:52.960Z,1.77
2023-01-19T06:54:55.703Z,1.80
2023-01-19T06:57:59.675Z,1.93
2023-01-19T07:01:07.227Z,1.98
2023-01-19T07:04:14.044Z,2.02
2023-01-19T07:07:16.921Z,1.99
2023-01-19T07:10:19.585Z,1.99
2023-01-19T07:13:22.479Z,1.95
2023-01-19T07:16:25.399Z,1.96
2023-01-19T07:19:28.977Z,1.92
2023-01-19T07:22:31.482Z,1.93
2023-01-19T07:25:34.749Z,2.18
2023-01-19T07:28:37.594Z,2.11
2023-01-19T07:31:40.519Z,2.16
2023-01-19T07:34:43.234Z,2.12
2023-01-19T07:37:46.095Z,2.13
2023-01-19T07:40:48.719Z,2.20
2023-01-19T07:43:52.776Z,2.23
2023-01-19T07:46:55.362Z,2.31
2023-01-19T07:49:58.303Z,2.55
2023-01-19T07:53:08.727Z,2.81
2023-01-19T07:56:11.835Z,2.74
2023-01-19T07:59:14.886Z,2.51
2023-01-19T08:02:17.769Z,2.41
2023-01-19T08:05:21.181Z,2.45
2023-01-19T08:08:23.699Z,2.45
2023-01-19T08:11:26.795Z,2.47
2023-01-19T08:14:29.389Z,2.60
2023-01-19T08:17:32.265Z,2.51
2023-01-19T08:20:35.668Z,2.61
2023-01-19T08:23:38.591Z,2.59
2023-01-19T08:26:41.203Z,2.65
2023-01-19T08:29:44.136Z,2.60
2023-01-19T08:32:46.865Z,2.75
2023-01-19T08:35:52.909Z,2.69
2023-01-19T08:38:55.614Z,2.72
2023-01-19T08:42:00.651Z,2.72
2023-01-19T08:45:03.228Z,2.66
2023-01-19T08:48:06.455Z,2.83
2023-01-19T08:51:09.321Z,2.76
2023-01-19T08:54:12.696Z,2.82
2023-01-19T08:57:15.435Z,2.75
2023-01-19T09:00:19.130Z,2.75
2023-01-19T09:03:22.916Z,2.59
2023-01-19T09:06:26.191Z,2.64
2023-01-19T09:09:28.844Z,2.62
2023-01-19T09:12:32.944Z,2.64
2023-01-19T09:15:37.776Z,2.61
2023-01-19T09:18:41.464Z,2.65
2023-01-19T09:21:44.012Z,2.82
2023-01-19T09:24:46.876Z,2.68
2023-01-19T09:27:49.405Z,2.78
2023-01-19T09:30:52.563Z,2.78
2023-01-19T09:33:55.187Z,3.06
2023-01-19T09:36:58.188Z,3.20
2023-01-19T09:40:01.063Z,3.12
2023-01-19T09:43:16.995Z,3.17
2023-01-19T09:46:24.469Z,2.90
2023-01-19T09:49:38.536Z,2.93
2023-01-19T09:52:50.429Z,2.83
2023-01-19T09:55:53.427Z,2.77
2023-01-19T09:58:56.112Z,2.68
2023-01-19T10:02:06.326Z,2.63
2023-01-19T10:05:20.536Z,2.78
2023-01-19T10:08:41.767Z,2.60
2023-01-19T10:11:57.493Z,2.54
2023-01-19T10:15:06.937Z,2.61
2023-01-19T10:18:48.302Z,2.56
2023-01-19T10:21:51.592Z,2.33
2023-01-19T10:25:01.774Z,2.36
2023-01-19T10:28:04.805Z,2.16
2023-01-19T10:31:09.840Z,2.29
2023-01-19T10:34:21.537Z,2.39
2023-01-19T10:37:33.397Z,2.06
2023-01-19T10:40:52.277Z,2.02
2023-01-19T10:44:04.259Z,1.95
2023-01-19T10:47:17.775Z,1.96
2023-01-19T10:50:25.305Z,1.93
2023-01-19T10:53:28.223Z,1.92
2023-01-19T10:56:35.017Z,1.97
2023-01-19T10:59:47.919Z,1.91
2023-01-19T11:02:51.438Z,1.87
2023-01-19T11:05:54.049Z,1.93
2023-01-19T11:09:18.612Z,2.05
2023-01-19T11:12:23.799Z,2.16
2023-01-19T11:15:35.886Z,2.18
2023-01-19T11:18:40.263Z,2.12
2023-01-19T11:21:43.688Z,1.91
2023-01-19T11:24:46.304Z,2.00
2023-01-19T11:27:52.132Z,1.85
2023-01-19T11:31:03.670Z,1.71
2023-01-19T11:34:37.459Z,2.01
2023-01-19T11:37:42.888Z,1.62
2023-01-19T11:40:58.062Z,1.64
2023-01-19T11:44:15.074Z,1.64
2023-01-19T11:47:38.346Z,1.61
2023-01-19T11:50:46.006Z,1.64
2023-01-19T11:53:52.761Z,1.77
2023-01-19T11:56:59.390Z,1.65
2023-01-19T12:00:17.495Z,1.75
2023-01-19T12:03:39.099Z,1.72
2023-01-19T12:06:51.953Z,1.72
2023-01-19T12:10:00.314Z,1.78
2023-01-19T12:13:03.852Z,1.86
2023-01-19T12:16:12.175Z,1.71
2023-01-19T12:19:18.570Z,1.72
2023-01-19T12:22:23.849Z,1.78
2023-01-19T12:25:54.762Z,1.70
2023-01-19T12:29:03.906Z,1.67
2023-01-19T12:32:18.643Z,1.90
2023-01-19T12:36:10.326Z,1.91
2023-01-19T12:39:19.022Z,1.92
2023-01-19T12:42:22.846Z,1.77
2023-01-19T12:45:31.571Z,1.91
2023-01-19T12:48:41.987Z,1.74
2023-01-19T12:51:45.831Z,1.75
2023-01-19T12:55:00.605Z,1.82
2023-01-19T12:58:03.159Z,1.69
2023-01-19T13:01:21.176Z,1.68
2023-01-19T13:04:32.260Z,1.66
2023-01-19T13:08:06.319Z,1.95
2023-01-19T13:11:17.689Z,1.88
2023-01-19T13:14:37.683Z,1.78
2023-01-19T13:17:47.560Z,1.82
2023-01-19T13:21:04.860Z,2.00
2023-01-19T13:24:10.556Z,2.11
2023-01-19T13:27:13.837Z,2.09
2023-01-19T13:30:19.487Z,2.35
2023-01-19T13:33:25.699Z,2.11
2023-01-19T13:36:36.607Z,1.98
2023-01-19T13:39:44.230Z,2.05
2023-01-19T13:42:48.105Z,2.05
2023-01-19T13:45:54.199Z,2.06
2023-01-19T13:49:19.966Z,2.06
2023-01-19T13:52:24.075Z,2.01
2023-01-19T13:55:29.037Z,1.86
2023-01-19T13:58:32.416Z,1.93
2023-01-19T14:01:35.444Z,1.90
2023-01-19T14:04:38.534Z,1.98
2023-01-19T14:07:41.252Z,2.01
2023-01-19T14:10:54.279Z,1.75
2023-01-19T14:13:56.835Z,1.83
2023-01-19T14:16:59.701Z,1.50
2023-01-19T14:20:05.500Z,1.57
2023-01-19T14:23:37.905Z,1.47
2023-01-19T14:26:42.971Z,1.36
2023-01-19T14:29:47.550Z,1.28
2023-01-19T14:32:50.091Z,1.34
2023-01-19T14:35:52.903Z,1.25
2023-01-19T14:39:01.080Z,1.29
2023-01-19T14:42:06.771Z,1.29
2023-01-19T14:45:21.577Z,1.25
2023-01-19T14:48:25.784Z,1.21
2023-01-19T14:51:30.067Z,1.26
2023-01-19T14:54:40.568Z,1.16
2023-01-19T14:57:43.145Z,1.13
2023-01-19T15:00:47.184Z,1.05
2023-01-19T15:03:50.005Z,1.02
2023-01-19T15:06:52.790Z,1.07
2023-01-19T15:09:55.385Z,1.02
2023-01-19T15:12:59.999Z,1.18
2023-01-19T15:16:03.826Z,1.21
2023-01-19T15:19:09.199Z,1.29
2023-01-19T15:22:13.403Z,1.10
2023-01-19T15:25:19.302Z,1.14
2023-01-19T15:28:21.858Z,1.22
2023-01-19T15:31:26.363Z,1.26
2023-01-19T15:34:28.930Z,1.13
2023-01-19T15:37:33.014Z,1.18
2023-01-19T15:40:35.719Z,1.25
2023-01-19T15:43:38.459Z,1.14
2023-01-19T15:46:41.089Z,1.02
2023-01-19T15:49:43.978Z,0.97
2023-01-19T15:52:46.814Z,1.06
2023-01-19T15:55:55.462Z,1.00
2023-01-19T15:58:59.087Z,1.00
2023-01-19T16:02:02.783Z,1.08
2023-01-19T16:05:06.906Z,1.05
2023-01-19T16:08:10.896Z,1.00
2023-01-19T16:11:15.742Z,1.00
2023-01-19T16:14:18.449Z,1.07
2023-01-19T16:17:21.244Z,1.12
2023-01-19T16:20:23.819Z,1.09
2023-01-19T16:23:26.813Z,1.16
2023-01-19T16:26:33.696Z,1.07
2023-01-19T16:29:36.441Z,1.27
2023-01-19T16:32:39.084Z,1.13
2023-01-19T16:35:42.053Z,1.11
2023-01-19T16:38:44.699Z,1.13
